HBZHY VNLK-VNLK
Flight info
| Callsign | HBZHY |
|---|---|
| Flight time | 0h 42m |
| Altitude | 30000 |
| Route | MOUNT EVEREST |
| Aircraft | AS50/L-DGOV/C |
Departure
| Time | 2026-04-04 20:32 |
|---|---|
| Airport | Tenzing-Hillary Airport (VNLK) |
Arrival
| Time | 2026-04-04 21:15 |
|---|---|
| Airport | Tenzing-Hillary Airport (VNLK) |
| Time | Latitude | Longitude | Altitude | Speed | Heading |
|---|---|---|---|---|---|
| 2026-04-04 20:26 | 27.68775 | 86.73067 | 9405 ft | 0 kts | 59° |
| 2026-04-04 20:31 | 27.68773 | 86.73067 | 9440 ft | 5 kts | 15° |
| 2026-04-04 20:31 | 27.68835 | 86.72791 | 9568 ft | 60 kts | 297° |
| 2026-04-04 20:31 | 27.69122 | 86.72302 | 9622 ft | 84 kts | 315° |
| 2026-04-04 20:32 | 27.69591 | 86.71758 | 9637 ft | 101 kts | 318° |
| 2026-04-04 20:32 | 27.70082 | 86.71223 | 9852 ft | 96 kts | 321° |
| 2026-04-04 20:32 | 27.70641 | 86.70864 | 10022 ft | 93 kts | 353° |
| 2026-04-04 20:32 | 27.71320 | 86.70916 | 10063 ft | 101 kts | 9° |
| 2026-04-04 20:33 | 27.71994 | 86.70937 | 10221 ft | 93 kts | 3° |
| 2026-04-04 20:33 | 27.72629 | 86.70971 | 10386 ft | 89 kts | 9° |
| 2026-04-04 20:33 | 27.73263 | 86.71090 | 10519 ft | 94 kts | 13° |
| 2026-04-04 20:33 | 27.73913 | 86.71238 | 10611 ft | 93 kts | 19° |
| 2026-04-04 20:34 | 27.74415 | 86.71324 | 11031 ft | 62 kts | 16° |
| 2026-04-04 20:40 | 27.84373 | 86.79816 | 14881 ft | 119 kts | 61° |
| 2026-04-04 20:40 | 27.84623 | 86.80715 | 15110 ft | 123 kts | 80° |
| 2026-04-04 20:40 | 27.84665 | 86.81655 | 15418 ft | 118 kts | 94° |
| 2026-04-04 20:40 | 27.84915 | 86.82467 | 15852 ft | 113 kts | 50° |
| 2026-04-04 20:41 | 27.85603 | 86.82903 | 16224 ft | 121 kts | 18° |
| 2026-04-04 20:41 | 27.86474 | 86.83200 | 16362 ft | 138 kts | 31° |
| 2026-04-04 20:41 | 27.87079 | 86.83962 | 16754 ft | 127 kts | 56° |
| 2026-04-04 20:41 | 27.87497 | 86.84610 | 17366 ft | 71 kts | 147° |
| 2026-04-04 20:42 | 27.87624 | 86.85510 | 16613 ft | 134 kts | 80° |
| 2026-04-04 20:42 | 27.88182 | 86.86302 | 16905 ft | 133 kts | 26° |
| 2026-04-04 20:42 | 27.88861 | 86.87029 | 17039 ft | 144 kts | 59° |
| 2026-04-04 20:42 | 27.89267 | 86.88111 | 17147 ft | 151 kts | 72° |
| 2026-04-04 20:43 | 27.89532 | 86.89254 | 17354 ft | 155 kts | 77° |
| 2026-04-04 20:43 | 27.89638 | 86.90463 | 17595 ft | 153 kts | 87° |
| 2026-04-04 20:43 | 27.89533 | 86.91669 | 17794 ft | 155 kts | 96° |
| 2026-04-04 20:43 | 27.89411 | 86.92843 | 18199 ft | 144 kts | 92° |
| 2026-04-04 20:44 | 27.89340 | 86.93931 | 18575 ft | 133 kts | 90° |
| 2026-04-04 20:44 | 27.89495 | 86.94918 | 19057 ft | 122 kts | 66° |
| 2026-04-04 20:44 | 27.90158 | 86.95359 | 19365 ft | 127 kts | 344° |
| 2026-04-04 20:44 | 27.90892 | 86.94739 | 19459 ft | 137 kts | 314° |
| 2026-04-04 20:45 | 27.91633 | 86.94133 | 19691 ft | 129 kts | 322° |
| 2026-04-04 20:45 | 27.92396 | 86.93666 | 19996 ft | 123 kts | 324° |
| 2026-04-04 20:45 | 27.93137 | 86.93132 | 20236 ft | 126 kts | 320° |
| 2026-04-04 20:45 | 27.93875 | 86.92521 | 20452 ft | 134 kts | 317° |
| 2026-04-04 20:46 | 27.94479 | 86.91821 | 20887 ft | 116 kts | 296° |
| 2026-04-04 20:46 | 27.94800 | 86.91030 | 21241 ft | 107 kts | 283° |
| 2026-04-04 20:46 | 27.95045 | 86.90286 | 21621 ft | 98 kts | 281° |
| 2026-04-04 20:46 | 27.95262 | 86.89582 | 22178 ft | 94 kts | 286° |
| 2026-04-04 20:47 | 27.95643 | 86.88919 | 22578 ft | 101 kts | 303° |
| 2026-04-04 20:47 | 27.96152 | 86.88389 | 23157 ft | 102 kts | 313° |
| 2026-04-04 20:47 | 27.96639 | 86.87950 | 23971 ft | 93 kts | 321° |
| 2026-04-04 20:47 | 27.97293 | 86.87654 | 24470 ft | 116 kts | 330° |
| 2026-04-04 20:48 | 27.98162 | 86.87492 | 24291 ft | 131 kts | 342° |
| 2026-04-04 20:48 | 27.99088 | 86.87521 | 24326 ft | 144 kts | 0° |
| 2026-04-04 20:48 | 27.99977 | 86.88118 | 24580 ft | 152 kts | 45° |
| 2026-04-04 20:48 | 28.00314 | 86.89130 | 24830 ft | 131 kts | 102° |
| 2026-04-04 20:49 | 27.99939 | 86.89928 | 24947 ft | 103 kts | 148° |
| 2026-04-04 20:49 | 27.99869 | 86.90004 | 24978 ft | 100 kts | 152° |
| 2026-04-04 20:49 | 27.99545 | 86.90322 | 25201 ft | 81 kts | 159° |
| 2026-04-04 20:49 | 27.99139 | 86.90786 | 25551 ft | 83 kts | 152° |
| 2026-04-04 20:50 | 27.98742 | 86.91289 | 26257 ft | 90 kts | 146° |
| 2026-04-04 20:50 | 27.98390 | 86.91842 | 27049 ft | 89 kts | 144° |
| 2026-04-04 20:50 | 27.98236 | 86.92544 | 27898 ft | 104 kts | 84° |
| 2026-04-04 20:51 | 27.99496 | 86.93146 | 28301 ft | 72 kts | 277° |
| 2026-04-04 20:51 | 27.99527 | 86.92849 | 28431 ft | 32 kts | 222° |
| 2026-04-04 20:51 | 27.99258 | 86.92787 | 28431 ft | 42 kts | 216° |
| 2026-04-04 20:51 | 27.99022 | 86.92671 | 28401 ft | 32 kts | 218° |
| 2026-04-04 20:52 | 27.98888 | 86.92613 | 28201 ft | 35 kts | 176° |
| 2026-04-04 20:52 | 27.98559 | 86.93284 | 27579 ft | 125 kts | 142° |
| 2026-04-04 20:52 | 27.97897 | 86.93605 | 27156 ft | 98 kts | 206° |
| 2026-04-04 20:52 | 27.97388 | 86.93196 | 27091 ft | 89 kts | 229° |
| 2026-04-04 20:53 | 27.96975 | 86.92657 | 27296 ft | 90 kts | 227° |
| 2026-04-04 20:53 | 27.96701 | 86.92016 | 27561 ft | 95 kts | 249° |
| 2026-04-04 20:53 | 27.96862 | 86.91218 | 27674 ft | 118 kts | 282° |
| 2026-04-04 20:53 | 27.97673 | 86.90735 | 27664 ft | 162 kts | 345° |
| 2026-04-04 20:54 | 27.98715 | 86.91287 | 27914 ft | 166 kts | 53° |
| 2026-04-04 20:54 | 27.98983 | 86.92308 | 28572 ft | 112 kts | 123° |
| 2026-04-04 20:54 | 27.98673 | 86.92904 | 28677 ft | 77 kts | 158° |
| 2026-04-04 20:54 | 27.98217 | 86.93198 | 28380 ft | 82 kts | 190° |
| 2026-04-04 20:55 | 27.97679 | 86.92899 | 28056 ft | 101 kts | 227° |
| 2026-04-04 20:55 | 27.97369 | 86.92076 | 27810 ft | 129 kts | 251° |
| 2026-04-04 20:55 | 27.97587 | 86.91011 | 27652 ft | 152 kts | 287° |
| 2026-04-04 20:55 | 27.98277 | 86.90056 | 27359 ft | 163 kts | 297° |
| 2026-04-04 20:56 | 27.99028 | 86.89078 | 27111 ft | 160 kts | 291° |
| 2026-04-04 20:56 | 27.99235 | 86.88020 | 27006 ft | 128 kts | 245° |
| 2026-04-04 20:56 | 27.98673 | 86.87345 | 26796 ft | 120 kts | 209° |
| 2026-04-04 20:56 | 27.97871 | 86.87284 | 26474 ft | 120 kts | 173° |
| 2026-04-04 20:57 | 27.97090 | 86.87879 | 26032 ft | 149 kts | 150° |
| 2026-04-04 20:57 | 27.96363 | 86.88783 | 25923 ft | 169 kts | 139° |
| 2026-04-04 20:57 | 27.95714 | 86.89951 | 25896 ft | 184 kts | 117° |
| 2026-04-04 20:57 | 27.95383 | 86.91380 | 25645 ft | 192 kts | 107° |
| 2026-04-04 20:58 | 27.95250 | 86.92913 | 25457 ft | 197 kts | 96° |
| 2026-04-04 20:58 | 27.95071 | 86.94390 | 25496 ft | 179 kts | 118° |
| 2026-04-04 20:58 | 27.94741 | 86.95702 | 25355 ft | 180 kts | 118° |
| 2026-04-04 20:58 | 27.94295 | 86.97021 | 25146 ft | 177 kts | 119° |
| 2026-04-04 20:59 | 27.93904 | 86.98340 | 25064 ft | 176 kts | 118° |
| 2026-04-04 20:59 | 27.93375 | 86.99580 | 24722 ft | 170 kts | 138° |
| 2026-04-04 20:59 | 27.92465 | 87.00421 | 24335 ft | 164 kts | 156° |
| 2026-04-04 20:59 | 27.91472 | 87.00895 | 24152 ft | 152 kts | 178° |
| 2026-04-04 21:00 | 27.90509 | 87.00585 | 23740 ft | 152 kts | 213° |
| 2026-04-04 21:00 | 27.89740 | 86.99800 | 23392 ft | 150 kts | 238° |
| 2026-04-04 21:00 | 27.89329 | 86.98692 | 22968 ft | 152 kts | 248° |
| 2026-04-04 21:00 | 27.89176 | 86.97533 | 22624 ft | 152 kts | 266° |
| 2026-04-04 21:01 | 27.89353 | 86.96359 | 22557 ft | 153 kts | 291° |
| 2026-04-04 21:01 | 27.89851 | 86.95323 | 22259 ft | 145 kts | 292° |
| 2026-04-04 21:01 | 27.90289 | 86.94345 | 22033 ft | 132 kts | 290° |
| 2026-04-04 21:01 | 27.90533 | 86.93422 | 21673 ft | 123 kts | 275° |
| 2026-04-04 21:02 | 27.90499 | 86.92478 | 21338 ft | 118 kts | 257° |
| 2026-04-04 21:02 | 27.90303 | 86.91531 | 20815 ft | 130 kts | 253° |
| 2026-04-04 21:02 | 27.89961 | 86.90567 | 20314 ft | 135 kts | 239° |
| 2026-04-04 21:02 | 27.89464 | 86.89622 | 19736 ft | 141 kts | 236° |
| 2026-04-04 21:03 | 27.88870 | 86.88772 | 19376 ft | 135 kts | 227° |
| 2026-04-04 21:03 | 27.88290 | 86.87933 | 18938 ft | 140 kts | 234° |
| 2026-04-04 21:03 | 27.87712 | 86.87052 | 18594 ft | 138 kts | 237° |
| 2026-04-04 21:03 | 27.87374 | 86.86103 | 18354 ft | 125 kts | 262° |
| 2026-04-04 21:04 | 27.87332 | 86.85102 | 17847 ft | 134 kts | 280° |
| 2026-04-04 21:04 | 27.87130 | 86.84275 | 17749 ft | 110 kts | 214° |
| 2026-04-04 21:04 | 27.86450 | 86.84008 | 17660 ft | 98 kts | 185° |
| 2026-04-04 21:04 | 27.85763 | 86.84126 | 17370 ft | 97 kts | 176° |
| 2026-04-04 21:05 | 27.85164 | 86.84160 | 17298 ft | 82 kts | 187° |
| 2026-04-04 21:05 | 27.84585 | 86.84135 | 17049 ft | 84 kts | 193° |
| 2026-04-04 21:05 | 27.84007 | 86.83998 | 16762 ft | 87 kts | 208° |
| 2026-04-04 21:05 | 27.83671 | 86.83457 | 16498 ft | 90 kts | 269° |
| 2026-04-04 21:06 | 27.83814 | 86.82797 | 16301 ft | 90 kts | 302° |
| 2026-04-04 21:06 | 27.84208 | 86.82205 | 16039 ft | 101 kts | 317° |
| 2026-04-04 21:06 | 27.84610 | 86.81557 | 15778 ft | 103 kts | 295° |
| 2026-04-04 21:06 | 27.84819 | 86.80803 | 15550 ft | 97 kts | 281° |
| 2026-04-04 21:07 | 27.84900 | 86.80083 | 15363 ft | 94 kts | 279° |
| 2026-04-04 21:07 | 27.84915 | 86.79346 | 15126 ft | 93 kts | 265° |
| 2026-04-04 21:07 | 27.84875 | 86.78612 | 14878 ft | 97 kts | 276° |
| 2026-04-04 21:07 | 27.84849 | 86.77879 | 14710 ft | 85 kts | 259° |
| 2026-04-04 21:08 | 27.84513 | 86.77355 | 14548 ft | 90 kts | 232° |
| 2026-04-04 21:08 | 27.84166 | 86.76722 | 14364 ft | 101 kts | 243° |
| 2026-04-04 21:08 | 27.83886 | 86.75946 | 14002 ft | 116 kts | 253° |
| 2026-04-04 21:08 | 27.83568 | 86.75146 | 13750 ft | 109 kts | 226° |
| 2026-04-04 21:09 | 27.82963 | 86.74618 | 13527 ft | 108 kts | 212° |
| 2026-04-04 21:09 | 27.82376 | 86.74063 | 13222 ft | 111 kts | 221° |
| 2026-04-04 21:09 | 27.81814 | 86.73452 | 12918 ft | 115 kts | 217° |
| 2026-04-04 21:09 | 27.81117 | 86.72973 | 12659 ft | 116 kts | 207° |
| 2026-04-04 21:10 | 27.80590 | 86.72265 | 12288 ft | 122 kts | 251° |
| 2026-04-04 21:10 | 27.80397 | 86.71358 | 12104 ft | 118 kts | 261° |
| 2026-04-04 21:10 | 27.80405 | 86.70520 | 12035 ft | 89 kts | 232° |
| 2026-04-04 21:10 | 27.79843 | 86.70677 | 11641 ft | 100 kts | 136° |
| 2026-04-04 21:11 | 27.79375 | 86.71193 | 11501 ft | 86 kts | 149° |
| 2026-04-04 21:11 | 27.78875 | 86.71562 | 11377 ft | 85 kts | 124° |
| 2026-04-04 21:11 | 27.78381 | 86.71862 | 11190 ft | 90 kts | 184° |
| 2026-04-04 21:11 | 27.77781 | 86.71746 | 11095 ft | 91 kts | 210° |
| 2026-04-04 21:12 | 27.77237 | 86.71582 | 11074 ft | 83 kts | 189° |
| 2026-04-04 21:12 | 27.76643 | 86.71290 | 10785 ft | 103 kts | 210° |
| 2026-04-04 21:12 | 27.76049 | 86.70892 | 10705 ft | 99 kts | 214° |
| 2026-04-04 21:12 | 27.75418 | 86.70617 | 10559 ft | 101 kts | 194° |
| 2026-04-04 21:13 | 27.74741 | 86.70496 | 10438 ft | 96 kts | 186° |
| 2026-04-04 21:13 | 27.74077 | 86.70414 | 10307 ft | 100 kts | 182° |
| 2026-04-04 21:13 | 27.73375 | 86.70406 | 10247 ft | 101 kts | 180° |
| 2026-04-04 21:13 | 27.72941 | 86.70493 | 10231 ft | 91 kts | 172° |
| 2026-04-04 21:14 | 27.72330 | 86.70532 | 10143 ft | 89 kts | 185° |
| 2026-04-04 21:14 | 27.71738 | 86.70622 | 10012 ft | 82 kts | 171° |
| 2026-04-04 21:14 | 27.71110 | 86.70989 | 9949 ft | 68 kts | 151° |
| 2026-04-04 21:14 | 27.70839 | 86.71146 | 9982 ft | 62 kts | 145° |
| 2026-04-04 21:15 | 27.70556 | 86.71457 | 9963 ft | 49 kts | 138° |
| 2026-04-04 21:15 | 27.70395 | 86.71721 | 9903 ft | 39 kts | 127° |
| 2026-04-04 21:15 | 27.70183 | 86.71928 | 9926 ft | 43 kts | 133° |
| 2026-04-04 21:15 | 27.69938 | 86.72160 | 10049 ft | 53 kts | 143° |
| 2026-04-04 21:16 | 27.69621 | 86.72504 | 10256 ft | 74 kts | 142° |
| 2026-04-04 21:16 | 27.69106 | 86.72893 | 10314 ft | 100 kts | 137° |
| 2026-04-04 21:16 | 27.68517 | 86.73287 | 10618 ft | 100 kts | 157° |
| 2026-04-04 21:16 | 27.67940 | 86.73693 | 10847 ft | 102 kts | 148° |
| 2026-04-04 21:17 | 27.67300 | 86.73565 | 10589 ft | 102 kts | 236° |
| 2026-04-04 21:17 | 27.66984 | 86.72868 | 10375 ft | 97 kts | 251° |
| 2026-04-04 21:17 | 27.66721 | 86.72134 | 10181 ft | 107 kts | 253° |
| 2026-04-04 21:17 | 27.66861 | 86.71411 | 9974 ft | 98 kts | 322° |
| 2026-04-04 21:18 | 27.67442 | 86.71060 | 9844 ft | 94 kts | 354° |
| 2026-04-04 21:18 | 27.67923 | 86.71443 | 9468 ft | 85 kts | 64° |
| 2026-04-04 21:18 | 27.68115 | 86.71914 | 9310 ft | 49 kts | 56° |
| 2026-04-04 21:18 | 27.68290 | 86.72191 | 9252 ft | 40 kts | 60° |
| 2026-04-04 21:19 | 27.68422 | 86.72453 | 9272 ft | 36 kts | 57° |
| 2026-04-04 21:19 | 27.68519 | 86.72642 | 9228 ft | 22 kts | 62° |
| 2026-04-04 21:19 | 27.68590 | 86.72764 | 9252 ft | 15 kts | 63° |
| 2026-04-04 21:19 | 27.68632 | 86.72847 | 9288 ft | 11 kts | 62° |
| 2026-04-04 21:20 | 27.68701 | 86.72983 | 9371 ft | 8 kts | 64° |
| 2026-04-04 21:20 | 27.68738 | 86.73060 | 9415 ft | 11 kts | 68° |
| 2026-04-04 21:21 | 27.68778 | 86.73139 | 9437 ft | 1 kts | 69° |
| 2026-04-04 21:21 | 27.68655 | 86.73257 | 9839 ft | 72 kts | 167° |
| 2026-04-04 21:21 | 27.67406 | 86.72947 | 10008 ft | 123 kts | 245° |
| 2026-04-04 21:22 | 27.67031 | 86.71967 | 9831 ft | 143 kts | 251° |
| 2026-04-04 21:22 | 27.67099 | 86.70988 | 10028 ft | 118 kts | 316° |
| 2026-04-04 21:22 | 27.67801 | 86.70948 | 9655 ft | 115 kts | 46° |
| 2026-04-04 21:22 | 27.68103 | 86.71770 | 9353 ft | 107 kts | 71° |
| 2026-04-04 21:23 | 27.68388 | 86.72390 | 9274 ft | 71 kts | 56° |
| 2026-04-04 21:23 | 27.68550 | 86.72694 | 9235 ft | 21 kts | 58° |
| 2026-04-04 21:23 | 27.68586 | 86.72762 | 9241 ft | 3 kts | 63° |
| 2026-04-04 21:23 | 27.68587 | 86.72769 | 9236 ft | 0 kts | 68° |
| 2026-04-04 21:24 | 27.68586 | 86.72768 | 9283 ft | 11 kts | 65° |
| 2026-04-04 21:24 | 27.68770 | 86.73174 | 9700 ft | 56 kts | 73° |
| 2026-04-04 21:24 | 27.68465 | 86.73536 | 10099 ft | 85 kts | 162° |
| 2026-04-04 21:24 | 27.67830 | 86.73687 | 10365 ft | 97 kts | 176° |
| 2026-04-04 21:25 | 27.67246 | 86.73503 | 10638 ft | 97 kts | 242° |
| 2026-04-04 21:25 | 27.66892 | 86.72728 | 10394 ft | 121 kts | 245° |
| 2026-04-04 21:25 | 27.66536 | 86.71851 | 10142 ft | 118 kts | 274° |
| 2026-04-04 21:26 | 27.67618 | 86.71267 | 9644 ft | 106 kts | 37° |
| 2026-04-04 21:26 | 27.68086 | 86.71839 | 9303 ft | 90 kts | 61° |
| 2026-04-04 21:26 | 27.68353 | 86.72308 | 9218 ft | 54 kts | 63° |
| 2026-04-04 21:26 | 27.68513 | 86.72628 | 9256 ft | 38 kts | 64° |
| 2026-04-04 21:27 | 27.68625 | 86.72826 | 9292 ft | 25 kts | 64° |
| 2026-04-04 21:27 | 27.68699 | 86.72964 | 9364 ft | 13 kts | 56° |
| 2026-04-04 21:27 | 27.68722 | 86.73030 | 9391 ft | 9 kts | 54° |
| 2026-04-04 21:27 | 27.68764 | 86.73055 | 9424 ft | 6 kts | 51° |
| 2026-04-04 21:28 | 27.68777 | 86.73070 | 9413 ft | 0 kts | 67° |